createdAt,value
2018-02-20T00:00:31.520Z,85.58
2018-02-20T00:02:59.909Z,85.29
2018-02-20T00:05:28.327Z,84.98
2018-02-20T00:07:56.726Z,84.78
2018-02-20T00:10:25.135Z,84.59
2018-02-20T00:12:53.530Z,84.39
2018-02-20T00:15:22.662Z,84.40
2018-02-20T00:17:51.049Z,84.24
2018-02-20T00:20:19.419Z,84.67
2018-02-20T00:22:47.814Z,84.96
2018-02-20T00:25:16.234Z,85.30
2018-02-20T00:27:44.602Z,85.27
2018-02-20T00:30:13.004Z,85.15
2018-02-20T00:32:42.271Z,85.12
2018-02-20T00:35:10.721Z,85.18
2018-02-20T00:37:39.133Z,85.61
2018-02-20T00:40:07.580Z,86.02
2018-02-20T00:42:35.975Z,86.11
2018-02-20T00:45:04.430Z,86.27
2018-02-20T00:47:32.804Z,86.04
2018-02-20T00:50:01.258Z,85.94
2018-02-20T00:52:30.613Z,86.21
2018-02-20T00:54:58.979Z,86.21
2018-02-20T00:57:27.369Z,86.09
2018-02-20T00:59:55.839Z,86.07
2018-02-20T01:02:24.216Z,85.80
2018-02-20T01:04:52.598Z,85.43
2018-02-20T01:07:20.981Z,85.36
2018-02-20T01:09:49.367Z,85.41
2018-02-20T01:12:17.786Z,85.35
2018-02-20T01:14:46.174Z,85.27
2018-02-20T01:17:15.310Z,85.27
2018-02-20T01:19:43.761Z,85.12
2018-02-20T01:22:12.903Z,84.50
2018-02-20T01:24:41.319Z,84.44
2018-02-20T01:27:10.618Z,83.93
2018-02-20T01:29:39.869Z,83.05
2018-02-20T01:32:08.249Z,81.97
2018-02-20T01:34:36.623Z,81.63
2018-02-20T01:37:04.996Z,81.29
2018-02-20T01:39:33.382Z,81.19
2018-02-20T01:42:01.780Z,81.00
2018-02-20T01:44:30.222Z,81.01
2018-02-20T01:46:58.589Z,80.82
2018-02-20T01:49:26.972Z,80.70
2018-02-20T01:51:55.351Z,80.56
2018-02-20T01:54:23.808Z,80.77
2018-02-20T01:56:52.959Z,80.42
2018-02-20T01:59:21.336Z,80.50
2018-02-20T02:01:49.786Z,80.29
2018-02-20T02:04:18.187Z,80.27
2018-02-20T02:06:46.586Z,80.04
2018-02-20T02:09:14.970Z,79.87
2018-02-20T02:11:43.414Z,79.76
2018-02-20T02:14:11.793Z,79.56
2018-02-20T02:16:40.202Z,79.74
2018-02-20T02:19:08.597Z,79.73
2018-02-20T02:21:36.991Z,79.70
2018-02-20T02:24:06.160Z,79.54
2018-02-20T02:26:34.544Z,79.62
2018-02-20T02:29:02.923Z,79.51
2018-02-20T02:31:31.397Z,79.46
2018-02-20T02:33:59.792Z,79.79
2018-02-20T02:36:28.225Z,79.91
2018-02-20T02:38:56.592Z,79.88
2018-02-20T02:41:24.986Z,80.20
2018-02-20T02:43:53.408Z,80.35
2018-02-20T02:46:21.792Z,80.39
2018-02-20T02:48:50.949Z,80.45
2018-02-20T02:51:19.342Z,80.74
2018-02-20T02:53:47.740Z,80.99
2018-02-20T02:56:16.189Z,81.12
2018-02-20T02:58:44.662Z,81.34
2018-02-20T03:01:13.135Z,81.46
2018-02-20T03:03:41.510Z,81.77
2018-02-20T03:06:09.898Z,82.15
2018-02-20T03:08:38.287Z,82.82
2018-02-20T03:11:06.680Z,83.70
2018-02-20T03:13:35.100Z,84.37
2018-02-20T03:16:04.248Z,84.98
2018-02-20T03:18:32.666Z,85.81
2018-02-20T03:21:01.810Z,86.54
2018-02-20T03:23:30.275Z,86.76
2018-02-20T03:25:58.665Z,86.64
2018-02-20T03:28:27.041Z,86.59
2018-02-20T03:30:55.445Z,86.60
2018-02-20T03:33:23.865Z,86.43
2018-02-20T03:35:53.025Z,86.44
2018-02-20T03:38:21.448Z,86.25
2018-02-20T03:40:49.851Z,86.35
2018-02-20T03:43:18.212Z,86.46
2018-02-20T03:45:46.615Z,86.69
2018-02-20T03:48:15.015Z,87.12
2018-02-20T03:50:43.419Z,87.30
2018-02-20T03:53:12.657Z,87.60
2018-02-20T03:55:41.101Z,87.36
2018-02-20T03:58:09.483Z,87.20
2018-02-20T04:00:38.633Z,87.13
2018-02-20T04:03:07.104Z,87.33
2018-02-20T04:05:35.563Z,87.24
2018-02-20T04:08:03.941Z,87.20
2018-02-20T04:10:32.338Z,87.06
2018-02-20T04:13:00.748Z,86.83
2018-02-20T04:15:29.146Z,86.80
2018-02-20T04:17:57.582Z,86.66
2018-02-20T04:20:25.990Z,86.64
2018-02-20T04:22:54.392Z,86.57
2018-02-20T04:25:23.544Z,86.54
2018-02-20T04:27:51.939Z,86.74
2018-02-20T04:30:21.133Z,86.88
2018-02-20T04:32:49.524Z,86.96
2018-02-20T04:35:17.913Z,86.89
2018-02-20T04:37:46.308Z,86.69
2018-02-20T04:40:14.734Z,86.75
2018-02-20T04:42:43.135Z,86.64
2018-02-20T04:45:11.548Z,86.53
2018-02-20T04:47:40.770Z,86.62
2018-02-20T04:50:09.144Z,86.57
2018-02-20T04:52:37.525Z,86.54
2018-02-20T04:55:05.924Z,86.08
2018-02-20T04:57:34.322Z,85.77
2018-02-20T05:00:02.704Z,85.55
2018-02-20T05:02:31.102Z,85.41
2018-02-20T05:05:00.240Z,85.17
2018-02-20T05:07:28.638Z,84.98
2018-02-20T05:09:57.009Z,84.55
2018-02-20T05:12:25.420Z,84.17
2018-02-20T05:14:53.803Z,84.06
2018-02-20T05:17:22.250Z,83.99
2018-02-20T05:19:50.724Z,84.00
2018-02-20T05:22:19.108Z,84.26
2018-02-20T05:24:48.342Z,84.26
2018-02-20T05:27:16.759Z,84.27
2018-02-20T05:29:45.150Z,84.47
2018-02-20T05:32:13.524Z,84.64
2018-02-20T05:34:41.987Z,84.59
2018-02-20T05:37:10.428Z,84.63
2018-02-20T05:39:38.826Z,84.38
2018-02-20T05:42:07.972Z,84.30
2018-02-20T05:44:36.442Z,84.36
2018-02-20T05:47:04.820Z,84.40
2018-02-20T05:49:33.416Z,84.33
2018-02-20T05:52:01.790Z,84.34
2018-02-20T05:54:30.206Z,84.14
2018-02-20T05:56:58.640Z,83.88
2018-02-20T05:59:27.009Z,83.76
2018-02-20T06:01:55.400Z,83.88
2018-02-20T06:04:23.781Z,83.67
2018-02-20T06:06:52.191Z,83.61
2018-02-20T06:09:20.594Z,83.60
2018-02-20T06:11:48.966Z,83.32
2018-02-20T06:14:17.403Z,83.33
2018-02-20T06:16:45.778Z,83.40
2018-02-20T06:19:14.145Z,83.51
2018-02-20T06:21:42.569Z,83.25
2018-02-20T06:24:10.974Z,84.62
2018-02-20T06:26:40.112Z,83.21
2018-02-20T06:29:08.518Z,82.77
2018-02-20T06:31:36.923Z,82.78
2018-02-20T06:34:05.311Z,82.68
2018-02-20T06:36:34.468Z,82.63
2018-02-20T06:39:02.874Z,82.61
2018-02-20T06:41:31.254Z,82.40
2018-02-20T06:44:00.401Z,83.19
2018-02-20T06:46:28.781Z,82.33
2018-02-20T06:48:57.154Z,82.22
2018-02-20T06:51:25.591Z,82.15
2018-02-20T06:53:54.796Z,81.50
2018-02-20T06:56:23.137Z,80.98
2018-02-20T06:58:51.564Z,81.13
2018-02-20T07:01:19.946Z,81.24
2018-02-20T07:03:48.334Z,81.18
2018-02-20T07:06:16.742Z,81.17
2018-02-20T07:08:45.106Z,80.66
2018-02-20T07:11:13.506Z,80.93
2018-02-20T07:13:41.906Z,81.82
2018-02-20T07:16:10.317Z,80.79
2018-02-20T07:18:38.708Z,81.09
2018-02-20T07:21:07.155Z,80.14
2018-02-20T07:23:36.299Z,80.31
2018-02-20T07:26:04.671Z,79.28
2018-02-20T07:28:33.055Z,79.13
2018-02-20T07:31:01.537Z,79.50
2018-02-20T07:33:29.905Z,79.86
2018-02-20T07:35:58.313Z,79.52
2018-02-20T07:38:27.501Z,78.37
2018-02-20T07:40:55.854Z,78.14
2018-02-20T07:43:24.237Z,77.64
2018-02-20T07:45:52.597Z,77.32
2018-02-20T07:48:20.992Z,77.79
2018-02-20T07:50:49.396Z,77.45
2018-02-20T07:53:17.784Z,77.67
2018-02-20T07:55:46.152Z,77.62
2018-02-20T07:58:14.584Z,78.26
2018-02-20T08:00:43.736Z,77.96
2018-02-20T08:03:12.238Z,77.76
2018-02-20T08:05:40.610Z,77.26
2018-02-20T08:08:09.014Z,77.93
2018-02-20T08:10:38.177Z,77.66
2018-02-20T08:13:06.539Z,78.25
2018-02-20T08:15:34.925Z,78.32
2018-02-20T08:18:03.289Z,77.28
2018-02-20T08:20:31.655Z,78.06
2018-02-20T08:23:00.071Z,78.25
2018-02-20T08:25:28.559Z,78.10
2018-02-20T08:27:56.937Z,77.82
2018-02-20T08:30:25.311Z,77.64
2018-02-20T08:32:53.701Z,78.01
2018-02-20T08:35:22.069Z,83.03
2018-02-20T08:37:50.457Z,76.28
2018-02-20T08:40:22.577Z,76.73
2018-02-20T08:42:50.979Z,76.70
2018-02-20T08:45:19.353Z,76.66
2018-02-20T08:47:47.758Z,77.15
2018-02-20T08:50:16.131Z,77.07
2018-02-20T08:52:44.510Z,77.13
2018-02-20T08:55:12.900Z,76.80
2018-02-20T08:57:42.031Z,76.44
2018-02-20T09:00:10.417Z,76.24
2018-02-20T09:02:38.816Z,76.14
2018-02-20T09:05:07.201Z,74.75
2018-02-20T09:07:35.577Z,74.16
2018-02-20T09:10:04.044Z,73.86
2018-02-20T09:12:32.417Z,74.52
2018-02-20T09:15:00.802Z,74.83
2018-02-20T09:17:29.173Z,74.78
2018-02-20T09:19:57.575Z,74.92
2018-02-20T09:22:25.964Z,74.77
2018-02-20T09:24:54.382Z,74.23
2018-02-20T09:27:22.764Z,71.56
2018-02-20T09:29:51.133Z,63.59
2018-02-20T09:32:20.300Z,58.96
2018-02-20T09:34:48.696Z,54.52
2018-02-20T09:37:17.069Z,54.36
2018-02-20T09:39:45.468Z,51.66
2018-02-20T09:42:13.842Z,52.10
2018-02-20T09:44:42.274Z,50.80
2018-02-20T09:47:10.642Z,48.08
2018-02-20T09:49:39.048Z,45.57
2018-02-20T09:52:07.413Z,45.78
2018-02-20T09:54:35.811Z,44.23
2018-02-20T09:57:04.197Z,47.42
2018-02-20T09:59:32.562Z,46.51
2018-02-20T10:02:01.747Z,47.51
2018-02-20T10:04:30.118Z,49.71
2018-02-20T10:06:58.513Z,50.44
2018-02-20T10:09:26.885Z,50.97
2018-02-20T10:11:55.270Z,56.33
2018-02-20T10:14:23.679Z,60.39
2018-02-20T10:16:52.818Z,60.70
2018-02-20T10:19:21.192Z,61.32
2018-02-20T10:21:49.609Z,62.40
2018-02-20T10:24:17.985Z,62.75
2018-02-20T10:26:46.377Z,63.75
2018-02-20T10:29:14.766Z,61.57
2018-02-20T10:31:43.909Z,62.93
2018-02-20T10:34:12.305Z,63.45
2018-02-20T10:36:40.718Z,63.78
2018-02-20T10:39:09.906Z,63.13
2018-02-20T10:41:38.290Z,62.71
2018-02-20T10:44:06.673Z,63.60
2018-02-20T10:46:35.857Z,63.88
2018-02-20T10:49:04.240Z,63.03
2018-02-20T10:51:32.638Z,62.73
2018-02-20T10:54:01.037Z,61.85
2018-02-20T10:56:29.433Z,62.02
2018-02-20T10:58:57.836Z,60.76
2018-02-20T11:01:26.217Z,59.51
2018-02-20T11:03:54.590Z,58.06
2018-02-20T11:06:22.987Z,59.90
2018-02-20T11:08:51.360Z,60.01
2018-02-20T11:11:19.776Z,59.03
2018-02-20T11:13:48.169Z,58.65
2018-02-20T11:16:16.529Z,58.35
2018-02-20T11:18:44.930Z,59.49
2018-02-20T11:21:13.317Z,60.39
2018-02-20T11:23:41.690Z,61.03
2018-02-20T11:26:10.082Z,61.45
2018-02-20T11:28:38.471Z,61.60
2018-02-20T11:31:06.873Z,61.97
2018-02-20T11:33:35.248Z,62.15
2018-02-20T11:36:03.649Z,62.91
2018-02-20T11:38:32.021Z,63.06
2018-02-20T11:41:01.204Z,62.60
2018-02-20T11:43:29.569Z,64.04
2018-02-20T11:45:57.980Z,62.25
2018-02-20T11:48:26.409Z,62.48
2018-02-20T11:50:55.550Z,62.21
2018-02-20T11:53:24.678Z,60.44
2018-02-20T11:55:53.087Z,59.91
2018-02-20T11:58:21.487Z,58.80
2018-02-20T12:00:49.876Z,57.30
2018-02-20T12:03:19.025Z,56.83
2018-02-20T12:05:47.408Z,56.31
2018-02-20T12:08:15.782Z,56.84
2018-02-20T12:10:44.199Z,57.83
2018-02-20T12:13:12.629Z,57.66
2018-02-20T12:15:41.011Z,58.02
2018-02-20T12:18:09.438Z,59.30
2018-02-20T12:20:37.813Z,59.79
2018-02-20T12:23:06.191Z,59.22
2018-02-20T12:25:34.601Z,59.06
2018-02-20T12:28:02.974Z,58.88
2018-02-20T12:30:31.381Z,58.30
2018-02-20T12:32:59.824Z,58.81
2018-02-20T12:35:28.246Z,59.79
2018-02-20T12:37:56.722Z,58.87
2018-02-20T12:40:25.128Z,59.67
2018-02-20T12:42:53.519Z,60.36
2018-02-20T12:45:21.903Z,59.92
2018-02-20T12:47:50.345Z,60.29
2018-02-20T12:50:18.773Z,60.45
2018-02-20T12:52:47.150Z,59.80
2018-02-20T12:55:15.538Z,59.99
2018-02-20T12:57:44.703Z,59.24
2018-02-20T13:00:13.138Z,57.95
2018-02-20T13:02:41.713Z,56.75
2018-02-20T13:05:10.122Z,56.23
2018-02-20T13:07:39.311Z,56.79
2018-02-20T13:10:07.766Z,57.16
2018-02-20T13:12:36.187Z,56.90
2018-02-20T13:15:04.558Z,56.93
2018-02-20T13:17:33.051Z,58.57
2018-02-20T13:20:01.430Z,58.18
2018-02-20T13:22:29.859Z,60.26
2018-02-20T13:24:58.289Z,59.10
2018-02-20T13:27:26.749Z,60.11
2018-02-20T13:29:55.225Z,59.95
2018-02-20T13:32:23.605Z,59.70
2018-02-20T13:34:52.033Z,59.23
2018-02-20T13:37:20.402Z,58.25
2018-02-20T13:39:48.793Z,58.83
2018-02-20T13:42:17.360Z,58.30
2018-02-20T13:44:45.838Z,58.57
2018-02-20T13:47:14.227Z,60.64
2018-02-20T13:49:42.754Z,62.05
2018-02-20T13:52:12.257Z,62.59
2018-02-20T13:54:40.670Z,63.00
2018-02-20T13:57:09.075Z,62.64
2018-02-20T13:59:37.453Z,60.68
2018-02-20T14:02:05.883Z,59.76
2018-02-20T14:04:34.283Z,59.01
2018-02-20T14:07:02.689Z,58.94
2018-02-20T14:09:31.103Z,59.09
2018-02-20T14:12:00.236Z,60.04
2018-02-20T14:14:28.642Z,60.74
2018-02-20T14:16:57.033Z,61.49
2018-02-20T14:19:25.661Z,61.69
2018-02-20T14:21:54.038Z,61.92
2018-02-20T14:24:22.435Z,61.93
2018-02-20T14:26:50.998Z,60.42
2018-02-20T14:29:19.425Z,60.77
2018-02-20T14:31:47.795Z,60.95
2018-02-20T14:34:16.210Z,60.49
2018-02-20T14:36:45.486Z,60.24
2018-02-20T14:39:13.907Z,60.11
2018-02-20T14:41:42.313Z,59.65
2018-02-20T14:44:10.690Z,60.28
2018-02-20T14:46:39.279Z,61.62
2018-02-20T14:49:07.809Z,61.85
2018-02-20T14:51:36.342Z,62.18
2018-02-20T14:54:04.802Z,62.17
2018-02-20T14:56:33.211Z,61.86
2018-02-20T14:59:01.598Z,61.91
2018-02-20T15:01:30.192Z,61.89
2018-02-20T15:03:58.598Z,63.63
2018-02-20T15:06:26.998Z,62.08
2018-02-20T15:08:55.426Z,62.33
2018-02-20T15:11:23.802Z,62.79
2018-02-20T15:13:52.665Z,62.88
2018-02-20T15:16:21.135Z,64.19
2018-02-20T15:18:49.525Z,64.59
2018-02-20T15:21:17.912Z,64.48
2018-02-20T15:23:46.312Z,65.01
2018-02-20T15:26:14.692Z,65.36
2018-02-20T15:28:43.074Z,65.87
2018-02-20T15:31:11.471Z,66.09
2018-02-20T15:33:39.918Z,66.38
2018-02-20T15:36:08.315Z,66.41
2018-02-20T15:38:36.691Z,66.77
2018-02-20T15:41:05.097Z,66.78
2018-02-20T15:43:33.569Z,67.20
2018-02-20T15:46:02.768Z,68.06
2018-02-20T15:48:31.158Z,67.14
2018-02-20T15:50:59.551Z,68.32
2018-02-20T15:53:27.965Z,67.27
2018-02-20T15:55:56.345Z,67.62
2018-02-20T15:58:24.746Z,67.59
2018-02-20T16:00:53.908Z,67.48
2018-02-20T16:03:22.301Z,67.45
2018-02-20T16:05:50.730Z,67.49
2018-02-20T16:08:19.103Z,68.02
2018-02-20T16:10:47.542Z,68.15
2018-02-20T16:13:16.040Z,68.50
2018-02-20T16:15:49.332Z,68.47
2018-02-20T16:18:18.534Z,68.78
2018-02-20T16:20:47.680Z,69.08
2018-02-20T16:23:16.087Z,69.68
2018-02-20T16:25:44.472Z,69.95
2018-02-20T16:28:12.852Z,70.19
2018-02-20T16:30:41.233Z,69.27
2018-02-20T16:33:09.668Z,69.35
2018-02-20T16:35:38.057Z,69.56
2018-02-20T16:38:06.422Z,69.54
2018-02-20T16:40:34.814Z,69.55
2018-02-20T16:43:03.194Z,69.65
2018-02-20T16:45:31.634Z,69.87
2018-02-20T16:48:00.027Z,69.97
2018-02-20T16:50:28.453Z,70.17
2018-02-20T16:52:56.836Z,70.52
2018-02-20T16:55:25.243Z,70.92
2018-02-20T16:57:54.414Z,71.28
2018-02-20T17:00:22.785Z,71.07
2018-02-20T17:02:51.375Z,71.21
2018-02-20T17:05:19.790Z,71.64
2018-02-20T17:07:48.157Z,71.78
2018-02-20T17:10:17.383Z,71.95
2018-02-20T17:12:45.759Z,71.88
2018-02-20T17:15:14.148Z,72.20
2018-02-20T17:17:42.544Z,72.18
2018-02-20T17:20:10.958Z,72.22
2018-02-20T17:22:39.330Z,72.75
2018-02-20T17:25:07.750Z,72.64
2018-02-20T17:27:36.180Z,72.73
2018-02-20T17:30:04.586Z,72.70
2018-02-20T17:32:33.767Z,72.69
2018-02-20T17:35:02.136Z,72.65
2018-02-20T17:37:30.540Z,72.67
2018-02-20T17:39:59.713Z,72.74
2018-02-20T17:42:28.109Z,73.09
2018-02-20T17:44:57.266Z,72.96
2018-02-20T17:47:26.410Z,71.41
2018-02-20T17:49:55.630Z,70.62
2018-02-20T17:52:24.019Z,70.44
2018-02-20T17:54:52.458Z,70.29
2018-02-20T17:57:21.606Z,70.45
2018-02-20T17:59:49.998Z,69.93
2018-02-20T18:02:18.409Z,69.80
2018-02-20T18:04:47.585Z,69.45
2018-02-20T18:07:15.987Z,69.29
2018-02-20T18:09:44.380Z,69.26
2018-02-20T18:12:12.779Z,68.92
2018-02-20T18:14:41.187Z,68.70
2018-02-20T18:17:09.565Z,69.13
2018-02-20T18:19:37.949Z,69.22
2018-02-20T18:22:06.334Z,69.24
2018-02-20T18:24:34.777Z,68.99
2018-02-20T18:27:03.221Z,68.70
2018-02-20T18:29:32.406Z,69.01
2018-02-20T18:32:00.868Z,68.95
2018-02-20T18:34:29.330Z,69.19
2018-02-20T18:36:57.872Z,69.15
2018-02-20T18:39:27.067Z,69.01
2018-02-20T18:41:56.253Z,69.47
2018-02-20T18:44:24.701Z,69.75
2018-02-20T18:46:53.124Z,69.96
2018-02-20T18:49:22.299Z,70.37
2018-02-20T18:51:50.690Z,70.63
2018-02-20T18:54:19.844Z,70.82
2018-02-20T18:56:48.243Z,70.95
2018-02-20T18:59:16.621Z,71.00
2018-02-20T19:01:45.034Z,71.46
2018-02-20T19:04:14.193Z,71.58
2018-02-20T19:06:42.602Z,71.87
2018-02-20T19:09:11.783Z,71.86
2018-02-20T19:11:40.156Z,71.95
2018-02-20T19:14:08.558Z,72.10
2018-02-20T19:16:37.744Z,72.29
2018-02-20T19:19:06.108Z,72.29
2018-02-20T19:21:34.545Z,72.31
2018-02-20T19:24:02.910Z,72.33
2018-02-20T19:26:31.338Z,72.53
2018-02-20T19:28:59.750Z,72.57
2018-02-20T19:31:28.922Z,72.78
2018-02-20T19:33:57.317Z,72.54
2018-02-20T19:36:26.466Z,72.72
2018-02-20T19:38:55.039Z,72.70
2018-02-20T19:41:23.464Z,72.65
2018-02-20T19:43:51.848Z,72.75
2018-02-20T19:46:20.213Z,72.64
2018-02-20T19:48:48.745Z,72.63
2018-02-20T19:51:17.106Z,72.48
2018-02-20T19:53:45.496Z,72.38
2018-02-20T19:56:13.854Z,72.46
2018-02-20T19:58:43.011Z,72.51
2018-02-20T20:01:11.400Z,72.29
2018-02-20T20:03:39.781Z,72.70
2018-02-20T20:06:08.180Z,73.00
2018-02-20T20:08:36.562Z,73.14
2018-02-20T20:11:05.799Z,73.02
2018-02-20T20:13:34.171Z,73.63
2018-02-20T20:16:02.548Z,73.65
2018-02-20T20:18:30.957Z,73.70
2018-02-20T20:20:59.376Z,74.01
2018-02-20T20:23:28.546Z,74.58
2018-02-20T20:25:56.943Z,74.81
2018-02-20T20:28:25.340Z,74.77
2018-02-20T20:30:53.765Z,74.79
2018-02-20T20:33:22.196Z,75.22
2018-02-20T20:35:51.375Z,75.50
2018-02-20T20:38:19.800Z,75.80
2018-02-20T20:40:48.180Z,75.54
2018-02-20T20:43:16.552Z,75.74
2018-02-20T20:45:44.971Z,75.20
2018-02-20T20:48:13.341Z,75.12
2018-02-20T20:50:41.738Z,75.35
2018-02-20T20:53:10.121Z,75.64
2018-02-20T20:55:39.387Z,75.77
2018-02-20T20:58:07.788Z,76.05
2018-02-20T21:00:36.155Z,75.93
2018-02-20T21:03:04.557Z,75.65
2018-02-20T21:05:32.960Z,75.84
2018-02-20T21:08:02.099Z,75.97
2018-02-20T21:10:30.621Z,75.87
2018-02-20T21:12:59.818Z,75.86
2018-02-20T21:15:28.221Z,75.94
2018-02-20T21:17:56.607Z,75.85
2018-02-20T21:20:25.020Z,75.94
2018-02-20T21:22:53.470Z,75.95
2018-02-20T21:25:22.636Z,75.63
2018-02-20T21:27:51.022Z,75.54
2018-02-20T21:30:20.206Z,75.52
2018-02-20T21:32:48.650Z,75.02
2018-02-20T21:35:17.011Z,75.01
2018-02-20T21:37:45.420Z,75.20
2018-02-20T21:40:13.842Z,74.98
2018-02-20T21:42:42.983Z,74.27
2018-02-20T21:45:11.399Z,74.56
2018-02-20T21:47:39.791Z,74.68
2018-02-20T21:50:08.941Z,74.84
2018-02-20T21:52:37.338Z,74.83
2018-02-20T21:55:05.866Z,75.02
2018-02-20T21:57:34.250Z,75.22
2018-02-20T22:00:02.670Z,75.22
2018-02-20T22:02:31.065Z,75.18
2018-02-20T22:04:59.443Z,75.06
2018-02-20T22:07:27.859Z,75.61
2018-02-20T22:09:56.249Z,75.50
2018-02-20T22:12:24.733Z,75.67
2018-02-20T22:14:53.127Z,75.71
2018-02-20T22:17:21.534Z,75.46
2018-02-20T22:19:49.945Z,75.74
2018-02-20T22:22:18.333Z,75.84
2018-02-20T22:24:46.704Z,75.97
2018-02-20T22:27:15.912Z,76.43
2018-02-20T22:29:44.297Z,76.34
2018-02-20T22:32:12.700Z,76.08
2018-02-20T22:34:41.090Z,76.19
2018-02-20T22:37:09.494Z,76.04
2018-02-20T22:39:37.892Z,75.99
2018-02-20T22:42:07.133Z,76.06
2018-02-20T22:44:35.616Z,76.09
2018-02-20T22:47:04.050Z,76.19
2018-02-20T22:49:33.206Z,76.28
2018-02-20T22:52:01.591Z,76.35
2018-02-20T22:54:29.990Z,76.62
2018-02-20T22:56:58.379Z,76.80
2018-02-20T22:59:27.608Z,76.98
2018-02-20T23:01:56.015Z,77.24
2018-02-20T23:04:24.458Z,77.39
2018-02-20T23:06:52.864Z,77.61
2018-02-20T23:09:21.332Z,77.83
2018-02-20T23:11:49.703Z,78.01
2018-02-20T23:14:18.075Z,78.46
2018-02-20T23:16:46.710Z,78.35
2018-02-20T23:19:15.089Z,78.51
2018-02-20T23:21:43.481Z,78.82
2018-02-20T23:24:11.922Z,79.07
2018-02-20T23:26:40.341Z,78.82
2018-02-20T23:29:08.776Z,78.94
2018-02-20T23:31:37.184Z,79.16
2018-02-20T23:34:05.566Z,79.16
2018-02-20T23:36:33.980Z,79.13
2018-02-20T23:39:02.517Z,79.33
2018-02-20T23:41:30.945Z,79.29
2018-02-20T23:43:59.344Z,79.27
2018-02-20T23:46:27.768Z,79.22
2018-02-20T23:48:56.151Z,79.43
2018-02-20T23:51:29.980Z,79.63
2018-02-20T23:53:59.149Z,79.66
2018-02-20T23:56:27.519Z,79.64
2018-02-20T23:58:55.936Z,79.76
